Tuesday, October 17, 2017, 12:01 AM EDT

KSHD, Staunton / Shenandoah

Location: Weyers Cave, VA, United States Lat: 38.267
Local Time: 12:01 AM EDT ( 4:01 GMT) Lon: -78.9
Time Zone: US/Eastern Elev: 1200 ft

Show me the last for .
Show Decoded

2017-10-16 23:35 METAR KSHD 170335Z AUTO 00000KT 10SM CLR 05/02 A3030 RMK AO2 T00530024 =
2017-10-16 23:15 METAR KSHD 170315Z AUTO 00000KT 10SM CLR 07/03 A3030 RMK AO2 T00650026 =
2017-10-16 22:55 METAR KSHD 170255Z AUTO 00000KT 10SM CLR 07/03 A3029 RMK AO2 T00650026 =
2017-10-16 22:40 METAR KSHD 170240Z AUTO 00000KT 10SM CLR 07/03 A3029 RMK AO2 T00650026 =
2017-10-16 22:15 METAR KSHD 170215Z AUTO 30003KT 10SM CLR 08/03 A3028 RMK AO2 T00750026 =
2017-10-16 21:55 METAR KSHD 170155Z AUTO 33004KT 10SM CLR 09/03 A3028 RMK AO2 T00870026 =
2017-10-16 21:35 METAR KSHD 170135Z AUTO 33004KT 10SM CLR 10/03 A3027 RMK AO2 T00950026 =
2017-10-16 21:15 METAR KSHD 170115Z AUTO 33006KT 10SM CLR 10/03 A3026 RMK AO2 T01020025 =
2017-10-16 20:55 METAR KSHD 170055Z AUTO 33009KT 10SM CLR 11/03 A3025 RMK AO2 T01050025 =
2017-10-16 20:35 METAR KSHD 170035Z AUTO 34005KT 10SM CLR 11/03 A3025 RMK AO2 T01060025 =
2017-10-16 20:15 METAR KSHD 170015Z AUTO 34006KT 10SM CLR 11/03 A3025 RMK AO2 T01070027 =
2017-10-16 19:55 METAR KSHD 162355Z AUTO 35006KT 10SM CLR 11/03 A3024 RMK AO2 T01110034 10166
                 20111 =
2017-10-16 19:35 METAR KSHD 162335Z AUTO 34008KT 10SM SCT065 12/04 A3024 RMK AO2 T01150035 =
2017-10-16 19:15 METAR KSHD 162315Z AUTO 34007KT 10SM SCT065 11/04 A3023 RMK AO2 T01140035 =
2017-10-16 18:55 METAR KSHD 162255Z AUTO 32006KT 10SM CLR 12/03 A3021 RMK AO2 T01190031 =
2017-10-16 18:35 METAR KSHD 162235Z AUTO 31007KT 10SM CLR 13/03 A3020 RMK AO2 T01260030 =
2017-10-16 18:15 METAR KSHD 162215Z AUTO 34007KT 10SM SCT055 14/02 A3019 RMK AO2 T01400021 =
2017-10-16 17:55 METAR KSHD 162155Z AUTO 35014G18KT 10SM BKN055 14/02 A3019 RMK AO2 T01440017 =
2017-10-16 17:35 METAR KSHD 162135Z AUTO 36009KT 10SM SCT055 14/03 A3018 RMK AO2 T01440029 =
2017-10-16 17:15 METAR KSHD 162115Z AUTO 35007KT 10SM SCT060 14/03 A3018 RMK AO2 T01360030 =
2017-10-16 16:55 METAR KSHD 162055Z AUTO 35012G16KT 10SM BKN060 14/04 A3018 RMK AO2 T01440036 =
2017-10-16 16:35 METAR KSHD 162035Z AUTO 36011G16KT 10SM BKN050 BKN070 15/04 A3018 RMK AO2
                 T01470038 =
2017-10-16 16:15 METAR KSHD 162015Z AUTO 34011G16KT 7SM SCT060 16/04 A3017 RMK AO2 T01600038 =
2017-10-16 15:55 METAR KSHD 161955Z AUTO 32012G16KT 10SM CLR 16/04 A3017 RMK AO2 T01590035 =
2017-10-16 15:35 METAR KSHD 161935Z AUTO 32011G21KT 10SM SCT050 16/03 A3016 RMK AO2 T01570033 =
2017-10-16 15:15 METAR KSHD 161915Z AUTO 01010KT 10SM OVC050 15/04 A3016 RMK AO2 T01500036 =
2017-10-16 14:55 METAR KSHD 161855Z AUTO 35011G16KT 10SM BKN050 16/04 A3017 RMK AO2 T01610040 =
2017-10-16 14:35 METAR KSHD 161835Z AUTO 34007G11KT 10SM BKN050 BKN055 14/04 A3017 RMK AO2
                 T01400035 =
2017-10-16 14:15 METAR KSHD 161815Z AUTO 36009G21KT 10SM BKN050 15/04 A3017 RMK AO2 T01540039 =
2017-10-16 13:55 METAR KSHD 161755Z AUTO 34010G18KT 10SM BKN050 16/03 A3016 RMK AO2 T01570034
                 10160 20132 =
2017-10-16 13:35 METAR KSHD 161735Z AUTO 35013G19KT 10SM OVC050 15/03 A3017 RMK AO2 T01470032 =
2017-10-16 13:15 METAR KSHD 161715Z AUTO 34013G19KT 10SM OVC050 15/04 A3017 RMK AO2 T01490035 =
2017-10-16 12:55 METAR KSHD 161655Z AUTO 34015G19KT 10SM BKN050 14/04 A3017 RMK AO2 T01440039 =
2017-10-16 12:35 METAR KSHD 161635Z AUTO 33011KT 10SM OVC048 15/04 A3017 RMK AO2 T01450043 =
2017-10-16 12:15 METAR KSHD 161615Z AUTO 31011G16KT 10SM SCT050 15/04 A3016 RMK AO2 T01530040 =
2017-10-16 11:55 METAR KSHD 161555Z AUTO 32013KT 10SM SCT050 15/04 A3016 RMK AO2 T01480041 =
2017-10-16 11:35 METAR KSHD 161535Z AUTO 32010G15KT 300V360 10SM OVC048 15/05 A3016 RMK AO2
                 T01490047 =
2017-10-16 11:15 METAR KSHD 161515Z AUTO 34009KT 10SM OVC048 14/05 A3015 RMK AO2 T01410049 =
2017-10-16 10:55 METAR KSHD 161455Z AUTO 35010G14KT 10SM OVC048 14/05 A3014 RMK AO2 T01400049 =
2017-10-16 10:35 METAR KSHD 161435Z AUTO 34009KT 10SM BKN050 14/05 A3014 RMK AO2 T01400050 =
2017-10-16 10:15 METAR KSHD 161415Z AUTO 33007KT 10SM SCT050 14/05 A3014 RMK AO2 T01400054 =
2017-10-16 09:55 METAR KSHD 161355Z AUTO 33008KT 10SM CLR 14/06 A3013 RMK AO2 T01410063 =
2017-10-16 09:35 METAR KSHD 161335Z AUTO 33006KT 10SM CLR 14/06 A3013 RMK AO2 T01350060 =
2017-10-16 09:15 METAR KSHD 161315Z AUTO 32008KT 10SM SCT048 14/06 A3012 RMK AO2 T01360060 =
2017-10-16 08:55 METAR KSHD 161255Z AUTO 33008KT 10SM SCT046 13/06 A3011 RMK AO2 T01330060 =
2017-10-16 08:35 METAR KSHD 161235Z AUTO 31006KT 10SM BKN044 14/06 A3012 RMK AO2 T01350062 =
2017-10-16 08:15 METAR KSHD 161215Z AUTO 31006KT 10SM BKN044 14/06 A3011 RMK AO2 T01360063 =
2017-10-16 07:55 METAR KSHD 161155Z AUTO 31003KT 10SM OVC042 13/08 A3009 RMK AO2 60004 70004
                 T01340077 10183 20133 =
2017-10-16 07:35 METAR KSHD 161135Z AUTO 32004KT 10SM OVC042 13/08 A3008 RMK AO2 T01330081 =
2017-10-16 07:15 METAR KSHD 161115Z AUTO 32005KT 10SM BKN042 14/09 A3007 RMK AO2 T01350085 =
2017-10-16 06:55 METAR KSHD 161055Z AUTO 35004KT 10SM BKN040 OVC046 14/09 A3005 RMK AO2 T01370092
                 =
2017-10-16 06:35 METAR KSHD 161035Z AUTO 04003KT 10SM BKN038 14/10 A3005 RMK AO2 T01350100 =
2017-10-16 06:15 METAR KSHD 161015Z AUTO 00000KT 10SM CLR 14/09 A3005 RMK AO2 T01410094 =
2017-10-16 05:55 METAR KSHD 160955Z AUTO 32003KT 10SM CLR 14/09 A3004 RMK AO2 T01420094 =
2017-10-16 05:35 METAR KSHD 160935Z AUTO 00000KT 10SM SCT120 15/09 A3005 RMK AO2 T01450090 =
2017-10-16 05:15 METAR KSHD 160915Z AUTO 32009KT 10SM OVC110 15/09 A3004 RMK AO2 T01460090 =
2017-10-16 04:55 METAR KSHD 160855Z AUTO 32010G14KT 10SM -RA SCT046 SCT075 OVC110 15/10 A3003 RMK
                 AO2 60004 T01470098 =
2017-10-16 04:35 METAR KSHD 160835Z AUTO 34007G14KT 10SM SCT048 SCT075 OVC110 15/11 A3002 RMK AO2
                 T01510108 =
2017-10-16 04:15 METAR KSHD 160815Z AUTO 34008KT 10SM -RA SCT044 SCT070 OVC100 16/12 A2999 RMK
                 AO2 T01600117 =
2017-10-16 03:55 METAR KSHD 160755Z AUTO 32006KT 10SM BKN042 BKN049 OVC090 16/13 A3000 RMK AO2
                 P0002 T01630128 =
2017-10-16 03:35 METAR KSHD 160735Z AUTO 35003KT 10SM -DZ BKN040 BKN060 OVC090 16/13 A3001 RMK
                 AO2 P0002 T01620134 =
2017-10-16 03:15 METAR KSHD 160715Z AUTO 31003KT 10SM -RA BKN047 BKN060 OVC090 17/15 A3001 RMK
                 AO2 P0002 T01650147 =
2017-10-16 02:55 METAR KSHD 160655Z AUTO 00000KT 10SM -DZ SCT039 OVC049 17/15 A3002 RMK AO2 P0002
                 T01650150 =
2017-10-16 02:35 METAR KSHD 160635Z AUTO 00000KT 7SM -RA BKN037 OVC050 17/15 A3001 RMK AO2 P0002
                 T01700154 =
2017-10-16 02:15 METAR KSHD 160615Z AUTO 36004KT 10SM DZ SCT033 SCT045 OVC050 18/16 A3000 RMK AO2
                 T01750155 =
2017-10-16 01:55 METAR KSHD 160555Z AUTO 34005KT 10SM -DZ SCT027 SCT037 OVC045 18/15 A3000 RMK
                 AO2 T01830150 10221 20183 402810110 =
2017-10-16 01:35 METAR KSHD 160535Z AUTO 34007KT 10SM -RA OVC043 20/15 A2999 RMK AO2 T02000154 =
2017-10-16 01:15 METAR KSHD 160515Z AUTO 35005KT 10SM SCT034 OVC043 21/16 A2998 RMK AO2 T02050156
                 =
2017-10-16 00:55 METAR KSHD 160455Z AUTO 01003KT 10SM BKN034 BKN040 OVC049 21/16 A2997 RMK AO2
                 T02070155 =
2017-10-16 00:35 METAR KSHD 160435Z AUTO 34003KT 10SM BKN040 OVC049 21/15 A2997 RMK AO2 T02120151
                 =
2017-10-16 00:15 METAR KSHD 160415Z AUTO 27004KT 10SM OVC046 21/15 A2996 RMK AO2 T02140152 =

Support USWX by starting your Amazon purchase here.